Burton, Ohio
Current Conditions -  °F | °C
As of 4:14 PM on Saturday 20 Dec 2014 (Local Time) from KPOV Reporting Station
NA  
Wind Chill: 29°   Ceiling: NA
Heat Index: 29°   Visibility: 10mi
Dew Point: 18°   Wind: 0mph
Humidity: 63%   Direction: NA
Pressure: 30.23"   Gusts: NA
Location:  41.47°N, 81.15°W
Report Text: KPOV 202114Z AUTO 00000KT 10SM M02/M08 A3023 RMK AO2 T10161078
Loading
Personal Weather Stations






























Interactive Weather Map New forecast layout! Learn more

10-Day Weather Forecast

Advertisements
Track Severe Weather on mobile